Time,TemperatureF,DewpointF,PressureIn,WindDirection,WindDirectionDegrees,WindSpeedMPH,WindSpeedGustMPH,Humidity,HourlyPrecipIn,Conditions,Clouds,dailyrainin,SoftwareType,DateUTC
2013-02-27 00:09:00,34.0,32.2,29.65,NNW,337,0.0,-999.0,93,-99.99,,,0.02,Acu-Link.com,2013-02-27 05:09:00,
2013-02-27 00:25:00,33.8,32.3,29.65,East,90,0.0,-999.0,94,-99.99,,,0.04,Acu-Link.com,2013-02-27 05:25:00,
2013-02-27 00:40:00,33.6,32.3,29.64,West,270,1.7,-999.0,95,-99.99,,,0.06,Acu-Link.com,2013-02-27 05:40:00,
2013-02-27 00:55:00,33.6,32.3,29.62,South,180,0.0,-999.0,95,-99.99,,,0.11,Acu-Link.com,2013-02-27 05:55:00,
2013-02-27 01:10:00,33.6,32.6,29.63,West,270,2.7,-999.0,96,-99.99,,,0.12,Acu-Link.com,2013-02-27 06:10:00,
2013-02-27 01:26:00,33.6,32.6,29.61,ESE,112,2.7,-999.0,96,-99.99,,,0.14,Acu-Link.com,2013-02-27 06:26:00,
2013-02-27 01:41:00,33.6,32.8,29.59,West,270,0.0,-999.0,97,-99.99,,,0.15,Acu-Link.com,2013-02-27 06:41:00,
2013-02-27 01:56:00,33.6,32.8,29.58,ENE,67,2.7,-999.0,97,-99.99,,,0.16,Acu-Link.com,2013-02-27 06:56:00,
2013-02-27 02:11:00,33.6,32.8,29.57,NNW,337,0.0,-999.0,97,-99.99,,,0.18,Acu-Link.com,2013-02-27 07:11:00,
2013-02-27 02:27:00,33.6,32.8,29.55,NW,315,0.0,-999.0,97,-99.99,,,0.18,Acu-Link.com,2013-02-27 07:27:00,
2013-02-27 02:42:00,33.6,32.8,29.54,West,270,3.2,-999.0,97,-99.99,,,0.18,Acu-Link.com,2013-02-27 07:42:00,
2013-02-27 02:57:00,34.0,33.2,29.55,West,270,0.0,-999.0,97,-99.99,,,0.18,Acu-Link.com,2013-02-27 07:57:00,
2013-02-27 03:13:00,34.0,33.2,29.53,WNW,292,2.2,-999.0,97,-99.99,,,0.19,Acu-Link.com,2013-02-27 08:13:00,
2013-02-27 03:28:00,34.2,33.4,29.52,WNW,292,2.2,-999.0,97,-99.99,,,0.20,Acu-Link.com,2013-02-27 08:28:00,
2013-02-27 03:43:00,34.3,33.5,29.49,NNE,22,0.0,-999.0,97,-99.99,,,0.22,Acu-Link.com,2013-02-27 08:43:00,
2013-02-27 03:59:00,34.5,33.7,29.49,ENE,67,1.1,-999.0,97,-99.99,,,0.24,Acu-Link.com,2013-02-27 08:59:00,
2013-02-27 04:18:00,34.5,33.7,29.48,WSW,247,0.0,-999.0,97,-99.99,,,0.25,Acu-Link.com,2013-02-27 09:18:00,
2013-02-27 04:33:00,34.7,33.9,29.49,South,180,0.0,-999.0,97,-99.99,,,0.25,Acu-Link.com,2013-02-27 09:33:00,
2013-02-27 04:48:00,34.7,33.9,29.46,East,90,2.2,-999.0,97,-99.99,,,0.26,Acu-Link.com,2013-02-27 09:48:00,
2013-02-27 05:03:00,34.9,34.4,29.47,NW,315,0.0,-999.0,98,-99.99,,,0.27,Acu-Link.com,2013-02-27 10:03:00,
2013-02-27 05:19:00,34.9,34.4,29.47,South,180,0.0,-999.0,98,-99.99,,,0.27,Acu-Link.com,2013-02-27 10:19:00,
2013-02-27 05:34:00,34.9,34.4,29.48,West,270,0.0,-999.0,98,-99.99,,,0.27,Acu-Link.com,2013-02-27 10:34:00,
2013-02-27 05:50:00,34.9,34.4,29.48,West,270,2.2,-999.0,98,-99.99,,,0.29,Acu-Link.com,2013-02-27 10:50:00,
2013-02-27 06:05:00,34.9,34.4,29.45,West,270,1.7,-999.0,98,-99.99,,,0.29,Acu-Link.com,2013-02-27 11:05:00,
2013-02-27 06:20:00,34.9,34.4,29.46,WNW,292,0.0,-999.0,98,-99.99,,,0.32,Acu-Link.com,2013-02-27 11:20:00,
2013-02-27 06:35:00,34.7,34.2,29.46,ESE,112,1.7,-999.0,98,-99.99,,,0.32,Acu-Link.com,2013-02-27 11:35:00,
2013-02-27 06:50:00,34.9,34.4,29.45,South,180,1.7,-999.0,98,-99.99,,,0.32,Acu-Link.com,2013-02-27 11:50:00,
2013-02-27 07:06:00,34.7,34.2,29.44,North,0,1.7,-999.0,98,-99.99,,,0.33,Acu-Link.com,2013-02-27 12:06:00,
2013-02-27 07:21:00,34.7,34.2,29.44,South,180,1.1,-999.0,98,-99.99,,,0.36,Acu-Link.com,2013-02-27 12:21:00,
2013-02-27 07:36:00,34.9,34.6,29.44,ESE,112,0.0,-999.0,99,-99.99,,,0.37,Acu-Link.com,2013-02-27 12:36:00,
2013-02-27 07:52:00,35.2,34.9,29.43,WNW,292,0.0,-999.0,99,-99.99,,,0.39,Acu-Link.com,2013-02-27 12:52:00,
2013-02-27 08:07:00,35.2,34.9,29.44,West,270,2.7,-999.0,99,-99.99,,,0.40,Acu-Link.com,2013-02-27 13:07:00,
2013-02-27 08:22:00,35.6,35.3,29.43,ESE,112,0.0,-999.0,99,-99.99,,,0.41,Acu-Link.com,2013-02-27 13:22:00,
2013-02-27 08:37:00,35.6,35.3,29.44,West,270,1.7,-999.0,99,-99.99,,,0.42,Acu-Link.com,2013-02-27 13:37:00,
2013-02-27 08:53:00,35.8,35.5,29.43,West,270,2.2,-999.0,99,-99.99,,,0.42,Acu-Link.com,2013-02-27 13:53:00,
2013-02-27 09:09:00,35.8,35.5,29.45,SW,225,0.0,-999.0,99,-99.99,,,0.43,Acu-Link.com,2013-02-27 14:09:00,
2013-02-27 09:24:00,36.0,35.7,29.45,NNW,337,1.7,-999.0,99,-99.99,,,0.43,Acu-Link.com,2013-02-27 14:24:00,
2013-02-27 09:39:00,36.1,35.8,29.45,WNW,292,0.0,-999.0,99,-99.99,,,0.44,Acu-Link.com,2013-02-27 14:39:00,
2013-02-27 09:54:00,36.3,36.0,29.46,NNW,337,2.2,-999.0,99,-99.99,,,0.46,Acu-Link.com,2013-02-27 14:54:00,
2013-02-27 10:10:00,36.3,36.0,29.46,NNE,22,1.7,-999.0,99,-99.99,,,0.48,Acu-Link.com,2013-02-27 15:10:00,
2013-02-27 10:25:00,35.6,35.1,29.48,NNW,337,2.2,-999.0,98,-99.99,,,0.50,Acu-Link.com,2013-02-27 15:25:00,
2013-02-27 10:40:00,35.6,34.8,29.47,West,270,0.0,-999.0,97,-99.99,,,0.52,Acu-Link.com,2013-02-27 15:40:00,
2013-02-27 10:55:00,35.2,34.2,29.46,NNW,337,2.7,-999.0,96,-99.99,,,0.53,Acu-Link.com,2013-02-27 15:55:00,
2013-02-27 11:10:00,35.6,34.6,29.48,West,270,1.7,-999.0,96,-99.99,,,0.56,Acu-Link.com,2013-02-27 16:10:00,
2013-02-27 11:26:00,36.0,34.7,29.47,NNE,22,1.1,-999.0,95,-99.99,,,0.58,Acu-Link.com,2013-02-27 16:26:00,
2013-02-27 11:41:00,36.7,35.1,29.47,NW,315,3.2,-999.0,94,-99.99,,,0.58,Acu-Link.com,2013-02-27 16:41:00,
2013-02-27 11:58:00,37.2,35.4,29.47,SW,225,2.2,-999.0,93,-99.99,,,0.58,Acu-Link.com,2013-02-27 16:58:00,
2013-02-27 12:13:00,36.9,35.1,29.47,WNW,292,0.0,-999.0,93,-99.99,,,0.59,Acu-Link.com,2013-02-27 17:13:00,
2013-02-27 12:28:00,37.8,36.2,29.47,ESE,112,0.0,-999.0,94,-99.99,,,0.60,Acu-Link.com,2013-02-27 17:28:00,
2013-02-27 12:44:00,37.9,35.8,29.45,ENE,67,2.2,-999.0,92,-99.99,,,0.62,Acu-Link.com,2013-02-27 17:44:00,
2013-02-27 12:59:00,36.9,35.3,29.45,NNW,337,3.2,-999.0,94,-99.99,,,0.64,Acu-Link.com,2013-02-27 17:59:00,
2013-02-27 13:14:00,38.3,36.2,29.45,ENE,67,2.7,-999.0,92,-99.99,,,0.64,Acu-Link.com,2013-02-27 18:14:00,
2013-02-27 13:30:00,38.8,36.1,29.45,North,0,2.2,-999.0,90,-99.99,,,0.64,Acu-Link.com,2013-02-27 18:30:00,
2013-02-27 13:45:00,38.7,36.0,29.46,North,0,2.2,-999.0,90,-99.99,,,0.64,Acu-Link.com,2013-02-27 18:45:00,
2013-02-27 14:00:00,37.8,35.7,29.46,NE,45,2.7,-999.0,92,-99.99,,,0.64,Acu-Link.com,2013-02-27 19:00:00,
2013-02-27 14:15:00,37.6,35.8,29.45,NNW,337,1.1,-999.0,93,-99.99,,,0.64,Acu-Link.com,2013-02-27 19:15:00,
2013-02-27 14:31:00,37.6,35.8,29.45,ESE,112,0.0,-999.0,93,-99.99,,,0.64,Acu-Link.com,2013-02-27 19:31:00,
2013-02-27 14:46:00,37.6,36.0,29.47,South,180,0.0,-999.0,94,-99.99,,,0.64,Acu-Link.com,2013-02-27 19:46:00,
2013-02-27 15:01:00,37.6,36.0,29.47,ESE,112,2.2,-999.0,94,-99.99,,,0.64,Acu-Link.com,2013-02-27 20:01:00,
2013-02-27 15:16:00,37.6,36.0,29.48,SE,135,2.7,-999.0,94,-99.99,,,0.64,Acu-Link.com,2013-02-27 20:16:00,
2013-02-27 15:32:00,37.2,35.6,29.47,South,180,2.7,-999.0,94,-99.99,,,0.64,Acu-Link.com,2013-02-27 20:32:00,
2013-02-27 15:48:00,37.2,35.9,29.48,ESE,112,0.0,-999.0,95,-99.99,,,0.64,Acu-Link.com,2013-02-27 20:48:00,
2013-02-27 16:03:00,37.2,35.9,29.47,NNE,22,2.2,-999.0,95,-99.99,,,0.64,Acu-Link.com,2013-02-27 21:03:00,
2013-02-27 16:18:00,37.2,35.9,29.49,ESE,112,0.0,-999.0,95,-99.99,,,0.64,Acu-Link.com,2013-02-27 21:18:00,
2013-02-27 16:34:00,37.4,36.4,29.47,ENE,67,0.0,-999.0,96,-99.99,,,0.64,Acu-Link.com,2013-02-27 21:34:00,
2013-02-27 16:49:00,37.6,36.6,29.49,South,180,0.0,-999.0,96,-99.99,,,0.64,Acu-Link.com,2013-02-27 21:49:00,
2013-02-27 17:05:00,37.6,36.6,29.48,South,180,0.0,-999.0,96,-99.99,,,0.64,Acu-Link.com,2013-02-27 22:05:00,
2013-02-27 17:20:00,37.4,36.4,29.48,South,180,0.0,-999.0,96,-99.99,,,0.64,Acu-Link.com,2013-02-27 22:20:00,
2013-02-27 17:35:00,37.2,36.2,29.49,South,180,0.0,-999.0,96,-99.99,,,0.64,Acu-Link.com,2013-02-27 22:35:00,
2013-02-27 17:51:00,37.0,36.0,29.50,East,90,0.0,-999.0,96,-99.99,,,0.64,Acu-Link.com,2013-02-27 22:51:00,
2013-02-27 18:06:00,37.0,36.2,29.50,ESE,112,0.0,-999.0,97,-99.99,,,0.64,Acu-Link.com,2013-02-27 23:06:00,
2013-02-27 18:21:00,37.0,36.2,29.51,East,90,0.0,-999.0,97,-99.99,,,0.64,Acu-Link.com,2013-02-27 23:21:00,
2013-02-27 18:36:00,36.9,36.1,29.51,East,90,0.0,-999.0,97,-99.99,,,0.64,Acu-Link.com,2013-02-27 23:36:00,
2013-02-27 18:52:00,36.9,36.1,29.51,East,90,0.0,-999.0,97,-99.99,,,0.64,Acu-Link.com,2013-02-27 23:52:00,
2013-02-27 19:07:00,36.7,35.9,29.51,ENE,67,0.0,-999.0,97,-99.99,,,0.64,Acu-Link.com,2013-02-28 00:07:00,
2013-02-27 19:23:00,36.5,35.7,29.50,SE,135,0.0,-999.0,97,-99.99,,,0.64,Acu-Link.com,2013-02-28 00:23:00,
2013-02-27 19:38:00,36.3,35.8,29.51,East,90,0.0,-999.0,98,-99.99,,,0.64,Acu-Link.com,2013-02-28 00:38:00,
2013-02-27 19:53:00,36.3,35.8,29.50,NE,45,0.0,-999.0,98,-99.99,,,0.64,Acu-Link.com,2013-02-28 00:53:00,
2013-02-27 20:09:00,36.3,35.8,29.51,ESE,112,0.0,-999.0,98,-99.99,,,0.64,Acu-Link.com,2013-02-28 01:09:00,
2013-02-27 20:24:00,36.3,35.8,29.50,South,180,0.0,-999.0,98,-99.99,,,0.64,Acu-Link.com,2013-02-28 01:24:00,
2013-02-27 20:39:00,36.1,35.6,29.50,SSW,202,0.0,-999.0,98,-99.99,,,0.64,Acu-Link.com,2013-02-28 01:39:00,
2013-02-27 20:55:00,36.1,35.6,29.51,NW,315,0.0,-999.0,98,-99.99,,,0.64,Acu-Link.com,2013-02-28 01:55:00,
2013-02-27 21:10:00,36.1,35.6,29.52,SSW,202,0.0,-999.0,98,-99.99,,,0.64,Acu-Link.com,2013-02-28 02:10:00,
2013-02-27 21:26:00,36.1,35.6,29.50,ESE,112,0.0,-999.0,98,-99.99,,,0.64,Acu-Link.com,2013-02-28 02:26:00,
2013-02-27 21:41:00,36.0,35.5,29.52,West,270,0.0,-999.0,98,-99.99,,,0.64,Acu-Link.com,2013-02-28 02:41:00,
2013-02-27 21:56:00,36.0,35.5,29.50,East,90,0.0,-999.0,98,-99.99,,,0.64,Acu-Link.com,2013-02-28 02:56:00,
2013-02-27 22:12:00,35.8,35.5,29.51,East,90,0.0,-999.0,99,-99.99,,,0.64,Acu-Link.com,2013-02-28 03:12:00,
2013-02-27 22:27:00,35.6,35.3,29.50,SSE,157,0.0,-999.0,99,-99.99,,,0.64,Acu-Link.com,2013-02-28 03:27:00,
2013-02-27 22:42:00,35.4,35.1,29.50,WNW,292,0.0,-999.0,99,-99.99,,,0.64,Acu-Link.com,2013-02-28 03:42:00,
2013-02-27 22:58:00,35.2,34.9,29.51,South,180,0.0,-999.0,99,-99.99,,,0.64,Acu-Link.com,2013-02-28 03:58:00,
2013-02-27 23:13:00,35.2,34.9,29.48,South,180,0.0,-999.0,99,-99.99,,,0.64,Acu-Link.com,2013-02-28 04:13:00,
2013-02-27 23:28:00,35.2,34.9,29.48,ESE,112,0.0,-999.0,99,-99.99,,,0.65,Acu-Link.com,2013-02-28 04:28:00,
2013-02-27 23:44:00,35.2,34.9,29.47,East,90,0.0,-999.0,99,-99.99,,,0.65,Acu-Link.com,2013-02-28 04:44:00,
2013-02-27 23:59:00,35.4,35.1,29.48,ESE,112,0.0,-999.0,99,-99.99,,,0.65,Acu-Link.com,2013-02-28 04:59:00,